Time;durP1;ratioP1;P1;durP2;ratioP2;P2;SDS_P1;SDS_P2;PMS_P1;PMS_P2;Temp;Humidity;BMP_temperature;BMP_pressure;BME280_temperature;BME280_humidity;BME280_pressure;Samples;Min_cycle;Max_cycle;Signal;HPM_P1;HPM_P2
2021/07/28 00:02:52;;;;;;;41.92;22.23;;;19.40;99.90;;;;;;6228199;28;20046;-79
2021/07/28 00:05:54;;;;;;;41.65;21.67;;;19.50;99.90;;;;;;6228271;28;20064;-79
2021/07/28 00:08:55;;;;;;;42.95;22.90;;;19.40;99.90;;;;;;6227787;28;20096;-79
2021/07/28 00:11:57;;;;;;;42.20;21.83;;;19.40;99.90;;;;;;6227088;28;20061;-78
2021/07/28 00:14:59;;;;;;;27.67;19.38;;;19.40;99.90;;;;;;6227716;28;20561;-79
2021/07/28 00:18:10;;;;;;;43.33;20.08;;;19.30;99.90;;;;;;6227710;28;20081;-78
2021/07/28 00:24:31;;;;;;;40.13;21.90;;;19.30;99.90;;;;;;6225929;28;20046;-79
2021/07/28 00:27:35;;;;;;;39.90;21.63;;;19.20;99.90;;;;;;6227978;28;20052;-79
2021/07/28 00:30:37;;;;;;;35.80;19.08;;;19.20;99.90;;;;;;6227588;28;20157;-79
2021/07/28 00:33:40;;;;;;;33.67;18.50;;;19.20;99.90;;;;;;6227930;28;20868;-78
2021/07/28 00:36:42;;;;;;;35.17;19.23;;;19.20;99.90;;;;;;6226939;28;20081;-79
2021/07/28 00:39:44;;;;;;;28.50;17.40;;;19.20;99.90;;;;;;6227191;28;20571;-80
2021/07/28 00:42:46;;;;;;;44.10;20.30;;;19.20;99.90;;;;;;6227654;28;20112;-80
2021/07/28 00:45:48;;;;;;;32.50;19.15;;;19.20;99.90;;;;;;6228058;28;20061;-79
2021/07/28 00:48:51;;;;;;;28.70;18.67;;;19.10;99.90;;;;;;6228269;28;20128;-79
2021/07/28 00:51:53;;;;;;;31.27;18.25;;;19.10;99.90;;;;;;6227826;28;20076;-79
2021/07/28 00:54:55;;;;;;;34.67;20.80;;;19.10;99.90;;;;;;6225438;28;20092;-78
2021/07/28 00:57:57;;;;;;;35.15;19.13;;;19.10;99.90;;;;;;6238589;28;20049;-77
2021/07/28 01:01:00;;;;;;;38.83;19.55;;;19.00;99.90;;;;;;6230199;28;20049;-79
2021/07/28 01:04:03;;;;;;;32.28;19.48;;;19.00;99.90;;;;;;6229690;28;20077;-80
2021/07/28 01:07:05;;;;;;;29.02;19.20;;;19.00;99.90;;;;;;6229077;28;20069;-79
2021/07/28 01:10:08;;;;;;;23.58;16.90;;;18.90;99.90;;;;;;6228781;28;20038;-79
2021/07/28 01:13:10;;;;;;;29.30;18.42;;;18.90;99.90;;;;;;6227910;28;20085;-79
2021/07/28 01:16:14;;;;;;;36.08;17.63;;;18.80;99.90;;;;;;6227789;28;20049;-79
2021/07/28 01:19:20;;;;;;;25.15;15.18;;;18.70;99.90;;;;;;6227757;28;20566;-79
2021/07/28 01:22:22;;;;;;;36.05;19.25;;;18.60;99.90;;;;;;6227891;28;20420;-79
2021/07/28 01:25:25;;;;;;;31.00;19.05;;;18.50;99.90;;;;;;6228238;28;20054;-78
2021/07/28 01:28:29;;;;;;;32.70;18.40;;;18.50;99.90;;;;;;6228391;28;20081;-78
2021/07/28 01:31:39;;;;;;;29.77;16.95;;;18.40;99.90;;;;;;6228412;28;20501;-78
2021/07/28 01:34:41;;;;;;;36.03;19.15;;;18.40;99.90;;;;;;6228980;28;20048;-79
2021/07/28 01:37:46;;;;;;;42.45;22.30;;;18.30;99.90;;;;;;6229004;28;20479;-79
2021/07/28 01:40:50;;;;;;;35.92;18.27;;;18.20;99.90;;;;;;6227052;28;20056;-77
2021/07/28 01:43:51;;;;;;;34.97;18.85;;;18.20;99.90;;;;;;6226651;28;20099;-79
2021/07/28 01:46:53;;;;;;;38.53;20.70;;;18.10;99.90;;;;;;6225692;28;20120;-79
2021/07/28 01:49:55;;;;;;;32.10;17.92;;;18.10;99.90;;;;;;6227381;28;20152;-79
2021/07/28 01:53:01;;;;;;;36.33;19.65;;;18.10;99.90;;;;;;6225446;28;20511;-79
2021/07/28 01:56:05;;;;;;;33.80;20.00;;;18.00;99.90;;;;;;6224992;28;20578;-79
2021/07/28 01:59:07;;;;;;;35.03;19.17;;;17.90;99.90;;;;;;6225578;28;20041;-76
2021/07/28 02:02:09;;;;;;;38.90;21.27;;;17.90;99.90;;;;;;6227091;28;20054;-78
2021/07/28 02:05:11;;;;;;;40.00;21.10;;;17.80;99.90;;;;;;6225548;28;20057;-78
2021/07/28 02:08:16;;;;;;;38.10;20.95;;;17.80;99.90;;;;;;6225093;28;20037;-79
2021/07/28 02:11:19;;;;;;;41.22;22.48;;;17.80;99.90;;;;;;6225193;28;20049;-78
2021/07/28 02:14:21;;;;;;;47.38;21.73;;;17.70;99.90;;;;;;6225082;28;20083;-78
2021/07/28 02:17:22;;;;;;;38.13;20.38;;;17.70;99.90;;;;;;6225544;28;20053;-78
2021/07/28 02:20:25;;;;;;;44.10;21.48;;;17.70;99.90;;;;;;6224951;28;20077;-78
2021/07/28 02:23:27;;;;;;;44.75;20.77;;;17.60;99.90;;;;;;6225214;28;20563;-78
2021/07/28 02:26:30;;;;;;;40.92;19.90;;;17.60;99.90;;;;;;6223847;28;20139;-78
2021/07/28 02:29:31;;;;;;;33.00;17.65;;;17.50;99.90;;;;;;6224912;28;20124;-77
2021/07/28 02:32:33;;;;;;;38.17;20.35;;;17.50;99.90;;;;;;6224748;28;20049;-77
2021/07/28 02:35:36;;;;;;;35.30;18.90;;;17.50;99.90;;;;;;6241343;22;20050;-75
2021/07/28 02:38:38;;;;;;;40.63;21.35;;;17.50;99.90;;;;;;6221377;28;20056;-75
2021/07/28 02:41:41;;;;;;;49.63;22.60;;;17.50;99.90;;;;;;6201204;28;20411;-75
2021/07/28 02:44:43;;;;;;;36.28;19.15;;;17.40;99.90;;;;;;6240518;28;20128;-76
2021/07/28 02:47:45;;;;;;;37.17;20.00;;;17.40;99.90;;;;;;6248922;28;20045;-76
2021/07/28 02:50:47;;;;;;;38.38;19.98;;;17.40;99.90;;;;;;6249500;28;20046;-76
2021/07/28 02:53:49;;;;;;;44.10;20.83;;;17.40;99.90;;;;;;6249273;28;20072;-76
2021/07/28 02:56:52;;;;;;;39.97;19.63;;;17.30;99.90;;;;;;6247784;28;20056;-75
2021/07/28 02:59:54;;;;;;;37.30;19.35;;;17.30;99.90;;;;;;6248517;28;20403;-76
2021/07/28 03:02:56;;;;;;;35.72;19.95;;;17.20;99.90;;;;;;6248798;28;20258;-76
2021/07/28 03:05:58;;;;;;;36.50;19.75;;;17.20;99.90;;;;;;6249163;28;20127;-76
2021/07/28 03:09:00;;;;;;;43.15;20.88;;;17.20;99.90;;;;;;6249046;28;20052;-75
2021/07/28 03:12:03;;;;;;;33.13;20.33;;;17.20;99.90;;;;;;6249477;28;20091;-76
2021/07/28 03:15:06;;;;;;;33.60;19.27;;;17.20;99.90;;;;;;6250861;28;20128;-76
2021/07/28 03:18:08;;;;;;;41.72;20.02;;;17.20;99.90;;;;;;6249869;28;20071;-76
2021/07/28 03:21:10;;;;;;;25.48;17.33;;;17.20;99.90;;;;;;6250207;28;20149;-75
2021/07/28 03:24:12;;;;;;;33.20;18.98;;;17.20;99.90;;;;;;6249624;28;20672;-76
2021/07/28 03:27:15;;;;;;;53.70;24.73;;;17.10;99.90;;;;;;6249687;28;20568;-75
2021/07/28 03:30:17;;;;;;;29.90;18.15;;;17.10;99.90;;;;;;6250925;28;20132;-75
2021/07/28 03:33:19;;;;;;;32.05;18.58;;;17.10;99.90;;;;;;6248564;28;20053;-74
2021/07/28 03:36:21;;;;;;;35.28;17.92;;;17.10;99.90;;;;;;6247488;28;20123;-75
2021/07/28 03:39:23;;;;;;;28.20;18.50;;;17.00;99.90;;;;;;6247685;28;20421;-74
2021/07/28 03:42:26;;;;;;;25.00;15.52;;;17.00;99.90;;;;;;6247669;28;20446;-74
2021/07/28 03:45:28;;;;;;;25.90;18.52;;;17.00;99.90;;;;;;6248426;28;20068;-75
2021/07/28 03:48:31;;;;;;;35.25;18.75;;;16.90;99.90;;;;;;6247248;28;20086;-75
2021/07/28 03:51:33;;;;;;;26.17;17.48;;;16.90;99.90;;;;;;6247479;28;20057;-74
2021/07/28 03:54:35;;;;;;;24.65;16.55;;;16.90;99.90;;;;;;6247766;28;20191;-75
2021/07/28 03:57:38;;;;;;;24.38;17.65;;;17.00;99.90;;;;;;6246434;28;20191;-75
2021/07/28 04:00:40;;;;;;;27.60;17.50;;;17.10;99.90;;;;;;6247230;28;20136;-75
2021/07/28 04:03:42;;;;;;;25.88;14.93;;;17.20;99.90;;;;;;6247616;28;20119;-75
2021/07/28 04:06:43;;;;;;;17.98;12.93;;;17.30;99.90;;;;;;6246745;28;20573;-74
2021/07/28 04:09:45;;;;;;;20.20;13.52;;;17.30;99.90;;;;;;6247827;28;20072;-75
2021/07/28 04:12:48;;;;;;;22.73;13.57;;;17.30;99.90;;;;;;6247132;28;20041;-75
2021/07/28 04:15:50;;;;;;;15.70;13.18;;;17.40;99.90;;;;;;6246641;28;20128;-74
2021/07/28 04:18:52;;;;;;;13.35;11.88;;;17.50;99.90;;;;;;6247133;28;20037;-74
2021/07/28 04:21:54;;;;;;;14.02;11.70;;;17.60;99.90;;;;;;6247271;28;20495;-73
2021/07/28 04:24:56;;;;;;;18.45;12.20;;;17.60;99.90;;;;;;6246844;28;20057;-74
2021/07/28 04:27:59;;;;;;;14.00;11.48;;;17.60;99.90;;;;;;6246545;28;20088;-74
2021/07/28 04:31:01;;;;;;;14.98;10.30;;;17.60;99.90;;;;;;6246598;28;20156;-74
2021/07/28 04:34:03;;;;;;;18.25;9.98;;;17.70;99.90;;;;;;6246516;28;20053;-73
2021/07/28 04:37:05;;;;;;;13.25;10.68;;;17.80;99.90;;;;;;6246199;28;20126;-74
2021/07/28 04:40:08;;;;;;;18.60;14.27;;;17.80;99.90;;;;;;6246424;28;20115;-74
2021/07/28 04:43:11;;;;;;;15.20;11.70;;;18.00;99.90;;;;;;6246404;28;20122;-75
2021/07/28 04:46:13;;;;;;;14.73;10.75;;;18.00;99.90;;;;;;6246472;28;20414;-74
2021/07/28 04:49:15;;;;;;;15.25;10.75;;;18.10;99.90;;;;;;6246299;28;20131;-74
2021/07/28 04:52:22;;;;;;;15.30;11.35;;;18.00;99.90;;;;;;6246440;28;20045;-74
2021/07/28 04:55:24;;;;;;;12.75;10.95;;;18.00;99.90;;;;;;6246351;28;20048;-74
2021/07/28 04:58:27;;;;;;;13.00;11.30;;;17.90;99.90;;;;;;6244117;28;20192;-75
2021/07/28 05:01:29;;;;;;;15.40;11.80;;;17.80;99.90;;;;;;6246448;28;20136;-74
2021/07/28 05:04:31;;;;;;;15.68;10.63;;;17.80;99.90;;;;;;6245798;28;20041;-74
2021/07/28 05:07:33;;;;;;;15.48;11.50;;;17.80;99.90;;;;;;6245733;28;20446;-74
2021/07/28 05:10:35;;;;;;;15.70;12.48;;;17.90;99.90;;;;;;6246064;28;20056;-74
2021/07/28 05:13:38;;;;;;;20.50;13.18;;;17.90;99.90;;;;;;6246916;28;20085;-74
2021/07/28 05:16:40;;;;;;;18.35;11.93;;;17.90;99.90;;;;;;6245520;28;20045;-74
2021/07/28 05:19:42;;;;;;;19.35;13.65;;;17.90;99.90;;;;;;6245535;28;20132;-74
2021/07/28 05:22:44;;;;;;;16.20;12.93;;;17.90;99.90;;;;;;6245535;28;20179;-75
2021/07/28 05:25:46;;;;;;;21.33;14.00;;;17.90;99.90;;;;;;6245177;28;20542;-74
2021/07/28 05:28:49;;;;;;;17.70;12.40;;;18.00;99.90;;;;;;6245602;28;20037;-75
2021/07/28 05:31:51;;;;;;;15.52;13.70;;;18.10;99.90;;;;;;6245214;28;20223;-75
2021/07/28 05:34:53;;;;;;;22.05;14.70;;;18.10;99.90;;;;;;6245267;28;20052;-74
2021/07/28 05:37:58;;;;;;;18.65;15.00;;;18.20;99.90;;;;;;6245446;28;20199;-75
2021/07/28 05:41:02;;;;;;;22.13;13.00;;;18.30;99.90;;;;;;6245525;28;20042;-74
2021/07/28 05:44:08;;;;;;;18.23;13.90;;;18.40;99.90;;;;;;6245453;28;20045;-74
2021/07/28 05:47:09;;;;;;;16.02;12.68;;;18.40;99.90;;;;;;6245061;28;20042;-75
2021/07/28 05:50:13;;;;;;;15.57;12.90;;;18.40;99.90;;;;;;6245589;28;20061;-74
2021/07/28 05:53:14;;;;;;;16.58;13.45;;;18.50;99.90;;;;;;6245136;28;20400;-75
2021/07/28 05:56:16;;;;;;;15.68;13.00;;;18.50;99.90;;;;;;6245377;28;20122;-75
2021/07/28 05:59:20;;;;;;;18.23;14.15;;;18.60;99.90;;;;;;6243719;28;20502;-75
2021/07/28 06:02:22;;;;;;;14.77;11.55;;;18.60;99.90;;;;;;6244733;28;20056;-75
2021/07/28 06:05:24;;;;;;;24.75;15.60;;;18.70;99.90;;;;;;6235278;28;20499;-75
2021/07/28 06:08:26;;;;;;;27.23;14.63;;;18.90;99.90;;;;;;6248220;28;20478;-75
2021/07/28 06:11:28;;;;;;;17.70;12.27;;;18.90;99.90;;;;;;6249380;28;20141;-75
2021/07/28 06:14:31;;;;;;;21.00;12.85;;;18.90;99.90;;;;;;6249446;28;20264;-75
2021/07/28 06:17:33;;;;;;;14.30;12.80;;;18.90;99.90;;;;;;6249651;28;20060;-75
2021/07/28 06:20:34;;;;;;;23.90;13.13;;;18.90;99.90;;;;;;6249600;28;20119;-75
2021/07/28 06:23:36;;;;;;;13.52;11.43;;;19.00;99.90;;;;;;6249700;28;20176;-75
2021/07/28 06:26:38;;;;;;;14.45;11.18;;;19.00;99.90;;;;;;6248901;28;20540;-75
2021/07/28 06:29:41;;;;;;;18.23;12.02;;;19.00;99.90;;;;;;6250079;28;20066;-75
2021/07/28 06:32:43;;;;;;;12.38;11.07;;;19.00;99.90;;;;;;6249245;28;20067;-75
2021/07/28 06:35:45;;;;;;;19.02;13.07;;;19.00;99.90;;;;;;6248884;28;20072;-75
2021/07/28 06:38:47;;;;;;;13.57;11.15;;;19.10;99.90;;;;;;6248825;28;20128;-75
2021/07/28 06:41:48;;;;;;;16.70;12.85;;;19.20;99.90;;;;;;6249368;28;20119;-75
2021/07/28 06:44:52;;;;;;;14.65;10.88;;;19.30;99.90;;;;;;6248937;28;20045;-75
2021/07/28 06:47:54;;;;;;;15.68;10.18;;;19.30;99.90;;;;;;6248526;28;20042;-75
2021/07/28 06:50:56;;;;;;;14.52;9.70;;;19.30;99.90;;;;;;6249069;28;20041;-74
2021/07/28 06:53:58;;;;;;;16.80;11.52;;;19.30;99.90;;;;;;6249240;28;20886;-74
2021/07/28 06:57:00;;;;;;;14.98;10.13;;;19.30;99.90;;;;;;6248507;28;20053;-74
2021/07/28 07:00:05;;;;;;;12.48;10.80;;;19.30;99.90;;;;;;6247353;28;20085;-74
2021/07/28 07:03:07;;;;;;;13.73;10.15;;;19.40;99.90;;;;;;6245413;28;20124;-74
2021/07/28 07:06:08;;;;;;;12.98;9.32;;;19.40;99.90;;;;;;6248739;28;20550;-74
2021/07/28 07:09:10;;;;;;;14.20;10.77;;;19.40;99.90;;;;;;6248374;28;20049;-74
2021/07/28 07:12:12;;;;;;;12.55;10.93;;;19.40;99.90;;;;;;6248278;28;20045;-74
2021/07/28 07:15:15;;;;;;;11.82;10.55;;;19.40;99.90;;;;;;6248268;28;20128;-74
2021/07/28 07:18:18;;;;;;;14.43;9.13;;;19.40;99.90;;;;;;6248006;28;20134;-75
2021/07/28 07:21:19;;;;;;;11.38;9.77;;;19.50;99.90;;;;;;6248542;28;20392;-75
2021/07/28 07:24:21;;;;;;;12.23;9.45;;;19.60;99.90;;;;;;6248151;28;20144;-74
2021/07/28 07:27:23;;;;;;;15.25;9.40;;;19.60;99.90;;;;;;6247817;28;20125;-75
2021/07/28 07:30:27;;;;;;;10.88;8.48;;;19.60;99.90;;;;;;6247729;28;20495;-75
2021/07/28 07:33:38;;;;;;;10.82;9.65;;;19.70;99.90;;;;;;6248768;28;20049;-75
2021/07/28 07:36:40;;;;;;;13.07;10.70;;;19.80;99.90;;;;;;6247584;28;20064;-74
2021/07/28 07:39:42;;;;;;;11.25;9.20;;;19.90;99.90;;;;;;6248109;28;20125;-75
2021/07/28 07:42:44;;;;;;;12.50;9.48;;;20.10;99.90;;;;;;6247743;28;20075;-75
2021/07/28 07:45:47;;;;;;;10.27;7.97;;;20.10;99.90;;;;;;6248143;28;20050;-74
2021/07/28 07:48:49;;;;;;;8.40;7.28;;;20.20;99.90;;;;;;6247956;28;20175;-74
2021/07/28 07:51:51;;;;;;;9.20;7.57;;;20.20;99.90;;;;;;6247674;28;20091;-74
2021/07/28 07:54:52;;;;;;;10.32;9.15;;;20.30;99.90;;;;;;6247312;28;20128;-75
2021/07/28 07:57:54;;;;;;;8.20;7.18;;;20.50;99.90;;;;;;6247707;28;20049;-74
2021/07/28 08:00:57;;;;;;;8.88;7.15;;;20.60;99.90;;;;;;6245957;28;20047;-73
2021/07/28 08:03:59;;;;;;;7.07;6.38;;;20.80;99.90;;;;;;6244135;28;20422;-73
2021/07/28 08:07:01;;;;;;;8.70;6.15;;;20.90;99.90;;;;;;6247705;28;20073;-74
2021/07/28 08:10:03;;;;;;;8.30;6.53;;;21.00;99.90;;;;;;6247494;28;20453;-74
2021/07/28 08:13:05;;;;;;;7.10;6.40;;;21.20;99.90;;;;;;6247401;28;20128;-74
2021/07/28 08:16:13;;;;;;;8.85;6.00;;;21.40;99.90;;;;;;6247490;28;20123;-76
2021/07/28 08:19:14;;;;;;;6.95;5.78;;;21.60;99.90;;;;;;6248093;28;20069;-76
2021/07/28 08:22:16;;;;;;;6.28;5.50;;;21.70;98.60;;;;;;6246809;28;20140;-76
2021/07/28 08:25:18;;;;;;;7.47;5.55;;;21.80;96.90;;;;;;6247666;28;20080;-75
2021/07/28 08:28:20;;;;;;;7.03;5.68;;;21.80;95.80;;;;;;6246964;28;20077;-75
2021/07/28 08:31:23;;;;;;;10.35;6.38;;;21.90;95.40;;;;;;6246281;28;20380;-76
2021/07/28 08:34:25;;;;;;;8.73;6.65;;;21.90;94.90;;;;;;6246949;28;20064;-76
2021/07/28 08:37:27;;;;;;;8.60;5.97;;;22.00;94.20;;;;;;6247043;28;20046;-76
2021/07/28 08:40:28;;;;;;;7.32;6.18;;;22.10;93.30;;;;;;6246818;28;20419;-75
2021/07/28 08:43:32;;;;;;;9.73;5.45;;;22.30;92.70;;;;;;6246691;28;20063;-76
2021/07/28 08:46:35;;;;;;;11.00;6.10;;;22.40;92.30;;;;;;6246025;28;20139;-75
2021/07/28 08:49:37;;;;;;;7.38;5.43;;;22.50;91.20;;;;;;6246861;28;20384;-76
2021/07/28 08:52:40;;;;;;;8.77;6.70;;;22.60;90.80;;;;;;6246742;28;20132;-75
2021/07/28 08:55:42;;;;;;;8.82;5.97;;;22.60;90.60;;;;;;6246036;28;20200;-75
2021/07/28 08:58:44;;;;;;;10.57;4.95;;;22.60;90.00;;;;;;6246279;28;20132;-76
2021/07/28 09:01:47;;;;;;;8.43;5.13;;;22.60;88.70;;;;;;6243540;28;20084;-75
2021/07/28 09:04:48;;;;;;;8.35;6.43;;;22.70;87.90;;;;;;6242771;28;20131;-76
2021/07/28 09:07:54;;;;;;;8.18;4.97;;;22.70;87.60;;;;;;6246108;28;20056;-75
2021/07/28 09:10:58;;;;;;;6.00;5.40;;;22.80;86.30;;;;;;6245526;28;20526;-76
2021/07/28 09:14:16;;;;;;;6.47;4.85;;;22.90;83.50;;;;;;6246032;28;20114;-75
2021/07/28 09:17:23;;;;;;;9.25;5.10;;;23.00;82.40;;;;;;6245682;28;20054;-76
2021/07/28 09:20:26;;;;;;;7.90;4.53;;;23.00;82.00;;;;;;6246486;28;20098;-75
2021/07/28 09:23:41;;;;;;;8.23;4.13;;;23.10;81.90;;;;;;6245515;28;20056;-75
2021/07/28 09:26:45;;;;;;;9.32;4.97;;;23.20;81.60;;;;;;6245204;28;20045;-75
2021/07/28 09:29:47;;;;;;;11.50;4.70;;;23.20;80.40;;;;;;6246051;28;20049;-76
2021/07/28 09:33:05;;;;;;;4.72;4.25;;;23.20;79.80;;;;;;6245300;28;20106;-76
2021/07/28 09:36:16;;;;;;;5.35;4.72;;;23.40;80.10;;;;;;6244865;28;20462;-75
2021/07/28 09:39:23;;;;;;;7.25;5.75;;;23.50;79.90;;;;;;6245247;28;20392;-76
2021/07/28 09:42:27;;;;;;;6.13;4.85;;;23.70;80.10;;;;;;6248758;28;20705;-76
2021/07/28 09:45:29;;;;;;;5.18;3.83;;;23.80;77.70;;;;;;6250789;28;20110;-76
2021/07/28 09:48:38;;;;;;;6.07;4.97;;;23.90;76.20;;;;;;6250006;28;20114;-76
2021/07/28 09:51:44;;;;;;;6.00;4.75;;;23.90;75.60;;;;;;6250178;28;20396;-75
2021/07/28 09:54:46;;;;;;;5.45;4.55;;;24.00;75.70;;;;;;6250261;28;20041;-76
2021/07/28 09:57:53;;;;;;;4.80;4.18;;;24.10;74.40;;;;;;6250570;28;20056;-76
2021/07/28 10:00:55;;;;;;;7.85;5.35;;;24.10;74.20;;;;;;6249912;28;20168;-76
2021/07/28 10:03:59;;;;;;;5.13;4.47;;;24.20;74.60;;;;;;6240820;28;20049;-76
2021/07/28 10:07:02;;;;;;;5.43;4.07;;;24.50;74.90;;;;;;6248863;28;20037;-76
2021/07/28 10:10:07;;;;;;;7.28;3.97;;;24.90;72.20;;;;;;6250562;28;20152;-75
2021/07/28 10:13:09;;;;;;;6.55;5.35;;;25.30;70.30;;;;;;6249557;28;20054;-76
2021/07/28 10:16:11;;;;;;;4.47;3.83;;;25.60;68.20;;;;;;6249770;28;20128;-76
2021/07/28 10:19:16;;;;;;;6.13;5.30;;;25.90;67.30;;;;;;6249411;28;20045;-76
2021/07/28 10:22:19;;;;;;;7.20;6.38;;;26.10;65.30;;;;;;6249659;28;20048;-76
2021/07/28 10:25:21;;;;;;;5.88;4.65;;;26.30;64.20;;;;;;6250299;28;20057;-76
2021/07/28 10:28:23;;;;;;;5.75;4.57;;;26.20;64.00;;;;;;6248983;28;20391;-74
2021/07/28 10:31:26;;;;;;;5.90;3.83;;;26.20;64.20;;;;;;6249478;28;20073;-76
2021/07/28 10:34:30;;;;;;;9.80;4.10;;;26.50;63.80;;;;;;6249241;28;20053;-76
2021/07/28 10:37:32;;;;;;;5.30;3.75;;;26.70;61.30;;;;;;6249307;28;20102;-76
2021/07/28 10:40:58;;;;;;;4.28;3.88;;;26.80;60.30;;;;;;6248679;28;20133;-76
2021/07/28 10:44:10;;;;;;;5.60;3.90;;;26.90;60.00;;;;;;6249433;28;20049;-76
2021/07/28 10:47:13;;;;;;;6.55;4.60;;;27.00;59.40;;;;;;6249466;28;20051;-77
2021/07/28 10:50:44;;;;;;;4.55;4.13;;;26.80;59.40;;;;;;6250030;28;20045;-76
2021/07/28 10:53:49;;;;;;;4.50;4.05;;;26.70;60.30;;;;;;6249012;28;20484;-77
2021/07/28 10:57:07;;;;;;;6.72;4.65;;;27.00;59.70;;;;;;6248906;28;20515;-76
2021/07/28 11:00:10;;;;;;;6.37;4.57;;;27.30;58.50;;;;;;6249159;28;20052;-76
2021/07/28 11:03:13;;;;;;;4.82;4.32;;;27.50;58.60;;;;;;6248648;28;20375;-76
2021/07/28 11:06:25;;;;;;;4.70;4.20;;;27.70;58.00;;;;;;6233610;28;20049;-76
2021/07/28 11:09:28;;;;;;;7.00;4.25;;;27.90;58.10;;;;;;6224700;28;20053;-75
2021/07/28 11:12:30;;;;;;;5.78;3.72;;;28.10;56.80;;;;;;6225483;28;20050;-76
2021/07/28 11:15:32;;;;;;;4.35;3.13;;;27.80;56.50;;;;;;6249194;28;20256;-76
2021/07/28 11:18:39;;;;;;;5.60;4.65;;;27.50;57.90;;;;;;6249200;28;20049;-77
2021/07/28 11:21:42;;;;;;;8.77;4.10;;;27.50;56.90;;;;;;6249430;28;20191;-77
2021/07/28 11:24:44;;;;;;;4.78;3.67;;;27.60;56.30;;;;;;6249087;28;20153;-76
2021/07/28 11:28:07;;;;;;;5.53;3.88;;;27.70;55.40;;;;;;6249648;28;20049;-77
2021/07/28 11:31:09;;;;;;;4.03;3.63;;;27.70;54.90;;;;;;6249580;28;20511;-76
2021/07/28 11:34:16;;;;;;;4.63;3.95;;;27.80;55.30;;;;;;6249414;28;20400;-76
2021/07/28 11:37:21;;;;;;;6.03;3.70;;;27.90;55.00;;;;;;6249368;28;20071;-76
2021/07/28 11:40:23;;;;;;;6.40;3.33;;;27.90;54.10;;;;;;6248930;28;20084;-76
2021/07/28 11:43:26;;;;;;;5.10;3.70;;;27.90;54.90;;;;;;6249768;28;20052;-74
2021/07/28 11:46:28;;;;;;;11.82;4.85;;;27.80;53.60;;;;;;6259402;28;20052;-76
2021/07/28 11:49:30;;;;;;;4.22;3.40;;;27.70;54.70;;;;;;6280430;28;20036;-74
2021/07/28 11:52:46;;;;;;;3.85;2.97;;;27.70;55.00;;;;;;6279558;28;20040;-75
2021/07/28 11:55:48;;;;;;;8.48;3.40;;;27.80;54.40;;;;;;6279442;28;20040;-76
2021/07/28 11:58:52;;;;;;;5.95;3.58;;;28.00;55.00;;;;;;6279959;28;20029;-76
2021/07/28 12:01:55;;;;;;;6.05;3.38;;;28.20;54.30;;;;;;6280413;28;20044;-75
2021/07/28 12:05:04;;;;;;;6.22;3.22;;;28.40;52.90;;;;;;6278162;28;20033;-75
2021/07/28 12:08:10;;;;;;;3.83;3.17;;;28.50;52.50;;;;;;6279244;28;20044;-75
2021/07/28 12:11:12;;;;;;;5.28;3.35;;;28.30;52.40;;;;;;6278450;28;20283;-75
2021/07/28 12:14:24;;;;;;;5.05;4.20;;;28.40;53.10;;;;;;6278269;28;20029;-76
2021/07/28 12:17:26;;;;;;;9.00;4.15;;;28.40;53.30;;;;;;6273677;28;20059;-74
2021/07/28 12:20:28;;;;;;;4.00;2.88;;;28.40;52.30;;;;;;6249223;28;20049;-75
2021/07/28 12:23:31;;;;;;;4.75;3.60;;;28.30;52.90;;;;;;6248914;28;20507;-75
2021/07/28 12:26:46;;;;;;;13.55;5.22;;;28.10;52.20;;;;;;6248197;28;20073;-75
2021/07/28 12:29:57;;;;;;;8.20;2.60;;;28.20;54.30;;;;;;6248806;28;20045;-76
2021/07/28 12:33:07;;;;;;;4.38;3.17;;;28.50;54.20;;;;;;6247870;28;20662;-75
2021/07/28 12:36:09;;;;;;;3.20;2.83;;;28.60;52.00;;;;;;6248947;28;20053;-75
2021/07/28 12:39:12;;;;;;;5.20;3.15;;;28.70;52.00;;;;;;6250258;28;20132;-75
2021/07/28 12:42:15;;;;;;;4.80;3.42;;;28.70;50.90;;;;;;6249518;28;20565;-76
2021/07/28 12:45:17;;;;;;;3.17;2.88;;;28.90;50.90;;;;;;6248880;28;20410;-76
2021/07/28 12:48:18;;;;;;;4.15;2.75;;;28.80;50.90;;;;;;6247721;28;20132;-75
2021/07/28 12:51:21;;;;;;;4.25;3.08;;;28.80;51.40;;;;;;6247323;28;20069;-76
2021/07/28 12:54:25;;;;;;;6.13;3.50;;;28.80;50.80;;;;;;6248756;28;20045;-75
2021/07/28 12:57:26;;;;;;;4.18;3.70;;;28.80;50.70;;;;;;6248268;28;20124;-76
2021/07/28 13:00:28;;;;;;;4.20;2.97;;;28.70;51.60;;;;;;6247440;28;20049;-75
2021/07/28 13:03:30;;;;;;;3.75;3.40;;;28.50;50.90;;;;;;6248999;28;20525;-75
2021/07/28 13:06:32;;;;;;;4.85;3.25;;;28.40;51.10;;;;;;6241734;28;20041;-76
2021/07/28 13:09:35;;;;;;;5.30;3.22;;;28.30;51.40;;;;;;6222317;28;20139;-76
2021/07/28 13:12:37;;;;;;;7.32;3.53;;;28.00;51.90;;;;;;6221915;28;20046;-74
2021/07/28 13:15:41;;;;;;;4.30;3.40;;;27.60;53.00;;;;;;6221287;28;20081;-75
2021/07/28 13:18:44;;;;;;;4.38;3.42;;;27.20;53.30;;;;;;6221432;28;20063;-76
2021/07/28 13:21:45;;;;;;;4.88;3.58;;;26.80;54.00;;;;;;6222292;28;20042;-76
2021/07/28 13:24:49;;;;;;;8.07;5.65;;;26.60;56.90;;;;;;6220728;28;20046;-76
2021/07/28 13:27:51;;;;;;;9.68;4.80;;;26.00;67.50;;;;;;6221568;28;20512;-74
2021/07/28 13:30:52;;;;;;;12.48;5.68;;;24.80;71.10;;;;;;6221598;28;20046;-75
2021/07/28 13:33:54;;;;;;;6.82;5.28;;;23.70;75.50;;;;;;6221930;28;20136;-74
2021/07/28 13:36:56;;;;;;;7.63;4.85;;;22.80;78.70;;;;;;6220392;28;20065;-74
2021/07/28 13:40:00;;;;;;;9.50;5.70;;;22.10;82.30;;;;;;6221358;28;20107;-74
2021/07/28 13:43:01;;;;;;;7.28;4.78;;;21.70;85.40;;;;;;6221468;28;20125;-74
2021/07/28 13:46:03;;;;;;;8.95;5.38;;;21.40;88.50;;;;;;6221117;28;20137;-74
2021/07/28 13:49:05;;;;;;;8.45;6.38;;;21.30;92.30;;;;;;6221102;28;20581;-74
2021/07/28 13:52:07;;;;;;;7.72;6.95;;;21.40;97.00;;;;;;6220811;28;20095;-74
2021/07/28 13:55:11;;;;;;;8.75;6.10;;;21.40;99.90;;;;;;6221399;28;20092;-74
2021/07/28 13:58:13;;;;;;;13.30;6.68;;;21.30;99.90;;;;;;6221078;28;20570;-74
2021/07/28 14:01:15;;;;;;;8.63;6.45;;;21.30;99.90;;;;;;6221022;28;20144;-74
2021/07/28 14:04:17;;;;;;;9.82;6.55;;;21.20;99.90;;;;;;6220596;28;20566;-74
2021/07/28 14:07:19;;;;;;;9.60;7.47;;;21.20;99.90;;;;;;6231750;28;20200;-74
2021/07/28 14:10:23;;;;;;;9.43;6.03;;;21.20;99.90;;;;;;6244686;28;20188;-74
2021/07/28 14:13:24;;;;;;;10.48;6.95;;;21.30;99.90;;;;;;6246013;28;20044;-74
2021/07/28 14:16:26;;;;;;;8.50;6.60;;;21.40;99.90;;;;;;6244839;28;20531;-74
2021/07/28 14:19:28;;;;;;;7.28;4.60;;;21.60;99.90;;;;;;6245571;28;20052;-74
2021/07/28 14:22:33;;;;;;;4.95;4.55;;;21.90;99.90;;;;;;6245562;28;20107;-74
2021/07/28 14:25:36;;;;;;;6.30;4.35;;;22.00;99.90;;;;;;6245099;28;20049;-73
2021/07/28 14:28:38;;;;;;;5.20;3.45;;;22.20;99.90;;;;;;6247321;28;20124;-74
2021/07/28 14:31:40;;;;;;;7.25;4.82;;;22.30;99.90;;;;;;6248928;28;20432;-75
2021/07/28 14:34:42;;;;;;;3.78;3.47;;;22.50;99.90;;;;;;6249687;28;20682;-75
2021/07/28 14:37:43;;;;;;;3.88;3.10;;;22.80;99.90;;;;;;6272105;22;20127;-77
2021/07/28 14:40:47;;;;;;;2.20;1.73;;;23.10;99.90;;;;;;6249008;28;20131;-77
2021/07/28 14:43:49;;;;;;;3.08;1.63;;;23.40;99.90;;;;;;6249120;28;20045;-76
2021/07/28 14:46:51;;;;;;;1.92;1.60;;;23.60;99.90;;;;;;6248872;28;20049;-77
2021/07/28 14:49:53;;;;;;;3.08;2.78;;;23.70;98.50;;;;;;6249718;28;20089;-77
2021/07/28 14:52:55;;;;;;;1.90;1.63;;;23.80;95.90;;;;;;6248560;28;20099;-77
2021/07/28 14:55:58;;;;;;;1.40;1.20;;;23.90;93.50;;;;;;6248595;28;20049;-77
2021/07/28 14:59:00;;;;;;;1.95;1.73;;;24.00;90.10;;;;;;6248133;28;20053;-78
2021/07/28 15:02:02;;;;;;;3.70;1.63;;;24.00;90.40;;;;;;6249111;28;20134;-78
2021/07/28 15:05:04;;;;;;;1.48;1.38;;;24.20;89.70;;;;;;6248227;28;20135;-77
2021/07/28 15:08:06;;;;;;;1.50;1.08;;;24.50;84.50;;;;;;6244772;28;20525;-77
2021/07/28 15:11:10;;;;;;;2.58;1.75;;;24.80;82.10;;;;;;6245462;28;20041;-78
2021/07/28 15:14:13;;;;;;;1.98;1.30;;;25.10;79.70;;;;;;6249523;28;20087;-78
2021/07/28 15:17:15;;;;;;;1.85;1.40;;;25.30;79.80;;;;;;6248150;28;20045;-77
2021/07/28 15:20:17;;;;;;;3.42;1.42;;;25.40;77.20;;;;;;6248303;28;20049;-77
2021/07/28 15:23:19;;;;;;;1.98;1.38;;;25.60;74.10;;;;;;6248428;28;20049;-77
2021/07/28 15:26:22;;;;;;;3.22;1.33;;;25.70;72.00;;;;;;6248492;28;20053;-77
2021/07/28 15:29:24;;;;;;;0.90;0.90;;;25.80;71.70;;;;;;6248423;28;20571;-77
2021/07/28 15:32:26;;;;;;;4.72;1.20;;;25.70;71.10;;;;;;6249435;28;20045;-77
2021/07/28 15:35:28;;;;;;;3.03;1.75;;;25.60;71.10;;;;;;6247666;28;20653;-77
2021/07/28 15:38:30;;;;;;;2.53;1.75;;;25.40;74.30;;;;;;6248903;28;20614;-77
2021/07/28 15:41:35;;;;;;;4.13;2.03;;;24.80;77.80;;;;;;6250554;28;20573;-78
2021/07/28 15:44:37;;;;;;;4.07;2.88;;;24.20;81.80;;;;;;6248326;28;20129;-77
2021/07/28 15:47:39;;;;;;;2.30;1.90;;;23.80;84.90;;;;;;6247811;28;20243;-77